Latest Weather Observations for Cooktown

IDQ60801

Issued at 1:02 pm EST Sunday 21 December 2014 (issued every 30 minutes, with the page automatically refreshed every 10 minutes)

About weather observations | Map of weather stations | Latest weather observations for QLD | Other Formats
Station Details ID: 031209 Name: COOKTOWN AIRPORT Lat: -15.45 Lon: 145.19 Height: 4.8 m
Data from the previous 72 hours. | See also: Recent months at Cooktown
Date/Time
EST
Temp
°C
App
Temp
°C
Dew
Point
Rel
Hum
%
Delta-T
°C
Wind Press
QNH
hPa
Press
MSL
hPa
Rain
since 9 am
mm
Dir
 
Spd
km/h
Gust
km/h
Spd
kts
Gust
kts
21/01:00pm 32.2 31.1 21.0 51 7.5 E 28 33 15 18 1010.5 - 0.0
21/12:30pm 33.0 32.7 20.4 47 8.4 E 22 30 12 16 1010.7 - 0.0
21/12:00pm 32.5 31.9 20.5 49 8.0 E 24 33 13 18 1011.1 1011.0 0.0
21/11:30am 32.4 32.5 21.1 51 7.6 E 22 32 12 17 1011.5 - 0.0
21/11:00am 31.2 31.5 21.6 56 6.5 E 22 32 12 17 1011.8 - 0.0
21/10:30am 31.8 31.8 22.4 57 6.4 E 26 33 14 18 1011.8 - 0.0
21/10:00am 32.3 32.6 22.2 55 6.9 E 24 32 13 17 1011.8 - 0.0
21/09:30am 31.8 31.5 21.8 55 6.8 E 26 35 14 19 1011.8 - 0.0
21/09:00am 31.1 30.7 21.6 57 6.4 E 26 33 14 18 1011.7 1011.5 0.0
21/08:30am 30.1 31.2 22.3 63 5.3 ESE 20 33 11 18 1011.6 - 0.0
21/08:00am 29.6 31.2 22.9 67 4.6 ESE 19 26 10 14 1011.4 - 0.0
21/07:30am 30.0 30.3 22.2 63 5.3 E 24 30 13 16 1011.0 - 0.0
21/07:00am 29.5 31.2 22.4 65 4.8 ESE 17 20 9 11 1010.8 - 0.0
21/06:30am 28.1 29.7 22.2 70 4.0 ESE 17 26 9 14 1010.5 - 0.0
21/06:00am 27.8 29.5 22.3 72 3.7 E 17 22 9 12 1010.1 1010.0 0.0
21/05:30am 27.3 29.3 22.3 74 3.4 E 15 24 8 13 1009.7 - 0.0
21/05:00am 27.2 28.9 22.3 74 3.3 E 17 20 9 11 1009.3 - 0.0
21/04:30am 27.4 29.3 22.0 72 3.6 E 15 22 8 12 1009.1 - 0.0
21/04:00am 27.3 29.8 22.4 74 3.3 ESE 13 17 7 9 1009.0 - 0.0
21/03:30am 27.4 29.1 22.4 74 3.4 E 17 22 9 12 1009.1 - 0.0
21/03:00am 27.7 30.1 22.2 72 3.7 ESE 13 20 7 11 1009.2 - 0.0
21/02:30am 27.3 29.7 22.3 74 3.4 ESE 13 19 7 10 1009.3 - 0.0
21/02:00am 27.1 30.0 22.5 76 3.1 E 11 15 6 8 1009.4 - 0.0
21/01:30am 27.8 29.9 22.5 73 3.6 ESE 15 20 8 11 1009.5 - 0.0
21/01:00am 27.5 29.7 22.6 74 3.3 E 15 20 8 11 1009.8 - 0.0
21/12:30am 27.4 30.3 22.5 74 3.3 ESE 11 19 6 10 1009.9 - 0.0
21/12:00am 27.6 29.6 22.3 73 3.6 ESE 15 20 8 11 1010.1 1010.0 0.0
 
Date/Time
EST
Temp
°C
App
Temp
°C
Dew
Point
Rel
Hum
%
Delta-T
°C
Wind Press
QNH
hPa
Press
MSL
hPa
Rain
since 9 am
mm
Dir
 
Spd
km/h
Gust
km/h
Spd
kts
Gust
kts
20/11:30pm 27.5 29.3 21.8 71 3.8 E 15 22 8 12 1010.4 - 0.0
20/11:00pm 27.8 29.5 21.7 69 4.1 ESE 15 20 8 11 1010.6 - 0.0
20/10:30pm 27.9 29.3 21.9 70 4.0 ESE 17 26 9 14 1010.7 - 0.0
20/10:00pm 28.0 29.6 22.1 70 4.0 ESE 17 26 9 14 1010.4 - 0.0
20/09:30pm 28.0 29.6 22.1 70 4.0 ESE 17 28 9 15 1010.3 - 0.0
20/09:00pm 28.1 29.6 22.7 72 3.7 E 19 26 10 14 1010.1 1010.0 0.0
20/08:30pm 28.0 29.2 22.1 70 4.0 E 19 24 10 13 1009.8 - 0.0
20/08:00pm 28.1 29.1 22.2 70 4.0 E 20 28 11 15 1009.6 - 0.0
20/07:30pm 28.3 29.3 22.2 69 4.1 E 20 26 11 14 1009.4 - 0.0
20/07:00pm 28.4 29.6 22.2 69 4.2 ESE 19 28 10 15 1009.2 - 0.0
20/06:30pm 28.6 29.1 21.9 67 4.5 E 22 30 12 16 1009.0 - 0.0
20/06:00pm 28.8 28.9 21.8 66 4.7 E 24 33 13 18 1008.6 1008.5 0.0
20/05:30pm 29.1 29.0 22.2 66 4.7 E 26 35 14 19 1008.6 - 0.0
20/05:00pm 29.3 28.7 21.9 64 5.0 E 28 37 15 20 1008.2 - 0.0
20/04:30pm 30.4 30.1 21.8 60 5.8 E 26 37 14 20 1007.9 - 0.0
20/04:00pm 30.5 28.9 21.6 59 6.0 E 32 37 17 20 1007.7 - 0.0
20/03:30pm 30.6 29.6 21.2 57 6.3 E 28 39 15 21 1007.7 - 0.0
20/03:00pm 31.6 31.0 21.2 54 7.0 E 26 37 14 20 1008.1 1008.0 0.0
20/02:30pm 30.8 30.5 21.1 56 6.5 E 24 33 13 18 1008.3 - 0.0
20/02:00pm 31.8 31.4 20.9 52 7.3 E 24 35 13 19 1008.5 - 0.0
20/01:30pm 31.7 30.9 19.2 47 8.2 E 22 32 12 17 1008.8 - 0.0
20/01:00pm 31.6 31.4 20.5 51 7.4 E 22 32 12 17 1009.2 - 0.0
20/12:30pm 31.9 31.2 19.6 48 8.1 E 22 30 12 16 1009.7 - 0.0
20/12:00pm 31.7 31.6 19.9 49 7.8 E 20 32 11 17 1010.1 1010.0 0.0
20/11:30am 31.5 31.0 20.7 52 7.2 ENE 24 30 13 16 1010.5 - 0.0
20/11:00am 31.5 31.2 20.4 51 7.4 ENE 22 30 12 16 1010.9 - 0.0
20/10:30am 31.3 30.9 19.4 49 7.8 ESE 20 30 11 16 1011.1 - 0.0
20/10:00am 30.8 31.2 20.9 55 6.6 E 20 28 11 15 1011.5 - 0.0
20/09:30am 31.0 31.6 21.0 55 6.7 E 19 26 10 14 1011.5 - 0.0
20/09:00am 30.7 31.8 21.3 57 6.3 E 17 24 9 13 1011.6 1011.5 0.0
20/08:30am 30.1 30.9 21.3 59 5.9 E 19 26 10 14 1011.6 - 0.0
20/08:00am 29.2 31.7 21.1 61 5.4 E 9 17 5 9 1011.4 - 0.0
20/07:30am 27.4 30.8 22.0 72 3.6 NW 7 9 4 5 1011.1 - 0.0
20/07:00am 26.4 29.9 21.9 76 3.0 WNW 6 9 3 5 1011.0 - 0.0
20/06:30am 24.1 27.8 22.3 90 1.2 WNW 6 9 3 5 1010.7 - 0.0
20/06:00am 23.3 26.8 22.1 93 0.8 NW 7 9 4 5 1010.2 1010.1 0.0
20/05:30am 23.6 28.3 21.9 90 1.1 CALM 0 0 0 0 1009.8 - 0.0
20/05:00am 24.0 28.7 21.9 88 1.4 CALM 0 6 0 3 1009.4 - 0.0
20/04:30am 24.8 29.2 22.1 85 1.8 ESE 2 7 1 4 1009.2 - 0.0
20/04:00am 24.7 28.4 22.2 86 1.7 NNW 6 7 3 4 1009.1 - 0.0
20/03:30am 24.8 29.7 22.3 86 1.7 CALM 0 0 0 0 1009.4 - 0.0
20/03:00am 24.5 29.3 22.1 86 1.6 CALM 0 0 0 0 1009.4 1009.3 0.0
20/02:30am 24.1 27.5 21.7 86 1.6 NW 6 7 3 4 1009.7 - 0.0
20/02:00am 24.0 28.4 21.4 85 1.7 CALM 0 0 0 0 1009.7 - 0.0
20/01:30am 24.6 29.3 21.9 85 1.8 CALM 0 0 0 0 1009.8 - 0.0
20/01:00am 25.0 29.9 22.3 85 1.8 CALM 0 0 0 0 1010.1 - 0.0
20/12:30am 25.1 29.9 22.1 83 2.0 CALM 0 0 0 0 1010.8 - 0.0
20/12:00am 24.7 28.1 22.0 85 1.8 NW 7 7 4 4 1011.1 1011.0 0.0
 
Date/Time
EST
Temp
°C
App
Temp
°C
Dew
Point
Rel
Hum
%
Delta-T
°C
Wind Press
QNH
hPa
Press
MSL
hPa
Rain
since 9 am
mm
Dir
 
Spd
km/h
Gust
km/h
Spd
kts
Gust
kts
19/11:30pm 24.4 29.0 21.7 85 1.8 CALM 0 0 0 0 1011.2 - 0.0
19/11:00pm 24.5 29.1 21.8 85 1.8 CALM 0 0 0 0 1011.3 - 0.0
19/10:30pm 24.2 28.7 21.6 85 1.7 CALM 0 0 0 0 1011.3 - 0.0
19/10:00pm 24.2 28.7 21.5 85 1.8 CALM 0 0 0 0 1011.0 - 0.0
19/09:30pm 24.6 29.0 21.4 82 2.1 CALM 0 0 0 0 1010.8 - 0.0
19/09:00pm 25.2 29.8 21.7 81 2.3 CALM 0 0 0 0 1010.7 1010.6 0.0
19/08:30pm 25.3 29.6 21.2 78 2.7 CALM 0 0 0 0 1010.2 - 0.0
19/08:00pm 25.8 28.8 21.3 76 3.0 ENE 7 11 4 6 1009.8 - 0.0
19/07:30pm 26.8 29.4 21.2 71 3.7 ENE 9 13 5 7 1009.5 - 0.0
19/07:00pm 27.2 28.9 21.0 69 4.1 ENE 13 17 7 9 1009.1 - 0.0
19/06:30pm 27.9 29.1 20.6 64 4.8 ENE 15 20 8 11 1009.0 - 0.0
19/06:00pm 28.5 28.9 20.6 62 5.2 E 19 26 10 14 1008.8 1008.7 0.0
19/05:30pm 29.2 29.7 20.1 58 6.0 E 17 28 9 15 1008.6 - 0.0
19/05:00pm 29.8 29.9 20.3 56 6.3 E 20 28 11 15 1008.4 - 0.0
19/04:30pm 30.2 29.8 20.2 55 6.6 E 22 33 12 18 1008.2 - 0.0
19/04:00pm 31.1 30.7 20.2 52 7.2 E 22 30 12 16 1008.2 - 0.0
19/03:30pm 30.9 30.4 20.0 52 7.2 E 22 30 12 16 1008.2 - 0.0
19/03:00pm 31.0 29.9 19.4 50 7.6 E 24 32 13 17 1008.4 1008.3 0.0
19/02:30pm 31.1 29.9 19.2 49 7.8 E 24 35 13 19 1008.8 - 0.0
19/02:00pm 31.2 30.3 19.1 48 7.9 E 22 32 12 17 1009.1 - 0.0
19/01:30pm 31.2 30.0 18.3 46 8.3 E 22 32 12 17 1009.6 - 0.0
19/01:00pm 31.4 30.5 18.2 45 8.5 E 20 30 11 16 1010.0 - 0.0
19/12:30pm 31.6 30.3 18.1 44 8.7 E 22 30 12 16 1010.5 - 0.0
19/12:00pm 31.3 30.3 18.8 47 8.1 E 22 30 12 16 1010.9 1010.8 0.0
19/11:30am 31.5 30.4 18.7 46 8.3 E 22 33 12 18 1011.2 - 0.0
19/11:00am 31.1 30.7 18.8 48 8.0 E 19 30 10 16 1011.6 - 0.0
19/10:30am 30.7 30.3 18.8 49 7.7 E 19 26 10 14 1011.8 - 0.0
19/10:00am 30.4 29.4 17.5 46 8.2 E 19 26 10 14 1012.0 - 0.0
19/09:30am 31.3 31.3 18.1 45 8.5 E 15 24 8 13 1012.1 - 0.0
19/09:00am 29.9 31.0 19.7 54 6.7 ENE 13 24 7 13 1012.1 1012.0 0.0
19/08:30am 29.1 30.8 20.1 58 5.9 ENE 11 15 6 8 1012.0 - 0.0
19/08:00am 27.0 31.6 21.8 73 3.5 CALM 0 6 0 3 1012.0 - 0.0
19/07:30am 25.1 29.5 21.3 79 2.5 CALM 0 0 0 0 1011.8 - 0.0
19/07:00am 24.0 27.5 21.1 84 1.9 W 4 7 2 4 1011.7 - 0.0
19/06:30am 22.8 27.0 21.0 89 1.2 CALM 0 0 0 0 1011.3 - 0.0
19/06:00am 22.4 25.0 20.5 89 1.2 WNW 7 9 4 5 1010.9 1010.8 0.0
19/05:30am 22.4 25.2 20.5 89 1.2 W 6 9 3 5 1010.6 - 0.0
19/05:00am 22.4 26.6 20.9 91 1.0 CALM 0 0 0 0 1010.3 - 0.0
19/04:30am 22.3 26.3 20.6 90 1.1 CALM 0 0 0 0 1010.1 - 0.0
19/04:00am 22.3 26.3 20.6 90 1.1 CALM 0 0 0 0 1010.1 - 0.0
19/03:30am 22.2 26.3 20.7 91 1.0 CALM 0 0 0 0 1010.3 - 0.0
19/03:00am 22.6 25.3 20.6 88 1.3 NW 7 9 4 5 1010.5 1010.4 0.0
19/02:30am 23.1 26.2 21.0 88 1.4 NW 6 7 3 4 1010.5 - 0.0
19/02:00am 23.1 27.5 21.4 90 1.1 CALM 0 0 0 0 1010.4 - 0.0
19/01:30am 22.6 26.7 20.8 89 1.2 CALM 0 0 0 0 1010.3 - 0.0
19/01:00am 22.9 27.1 20.9 88 1.3 CALM 0 0 0 0 1010.6 - 0.0
19/12:30am 23.0 26.1 21.0 88 1.3 NW 6 7 3 4 1011.0 - 0.0
19/12:00am 23.2 27.0 20.9 87 1.5 W 2 7 1 4 1011.4 1011.2 0.0
 
Date/Time
EST
Temp
°C
App
Temp
°C
Dew
Point
Rel
Hum
%
Delta-T
°C
Wind Press
QNH
hPa
Press
MSL
hPa
Rain
since 9 am
mm
Dir
 
Spd
km/h
Gust
km/h
Spd
kts
Gust
kts
18/11:35pm 23.3 27.5 20.9 86 1.6 CALM 0 0 0 0 1011.4 - 0.0
18/11:30pm 23.1 27.3 21.0 88 1.4 CALM 0 0 0 0 1011.5 - 0.0
18/11:25pm 23.4 27.5 20.8 85 1.7 CALM 0 0 0 0 1011.5 - 0.0
18/11:00pm 23.7 27.2 21.1 85 1.7 WNW 4 7 2 4 1011.3 - 0.0
18/10:30pm 23.8 26.7 21.1 85 1.8 ENE 7 9 4 5 1011.2 - 0.0
18/10:00pm 24.3 28.7 21.3 83 2.0 CALM 0 0 0 0 1011.3 - 0.0
18/09:30pm 24.4 28.7 21.1 82 2.2 CALM 0 0 0 0 1010.9 - 0.0
18/09:00pm 25.0 29.3 21.1 79 2.6 CALM 0 0 0 0 1010.6 1010.5 0.0
18/08:30pm 25.7 29.8 20.8 74 3.2 CALM 0 0 0 0 1010.2 - 0.0
18/08:00pm 26.0 30.1 20.7 72 3.5 CALM 0 0 0 0 1010.0 - 0.0
18/07:30pm 26.2 28.8 20.4 70 3.8 ENE 7 9 4 5 1009.7 - 0.0
18/07:00pm 27.3 29.1 20.3 65 4.6 E 11 13 6 7 1009.3 - 0.0
18/06:30pm 28.0 28.4 19.9 61 5.3 E 17 22 9 12 1009.0 - 0.0
18/06:00pm 28.7 28.7 19.7 58 5.9 E 19 24 10 13 1008.7 1008.6 0.0
18/05:30pm 29.4 29.0 19.4 55 6.5 E 20 26 11 14 1008.4 - 0.0
18/05:00pm 29.9 28.6 19.0 52 7.1 E 24 32 13 17 1008.3 - 0.0
18/04:30pm 30.5 29.1 18.8 49 7.6 E 24 32 13 17 1008.1 - 0.0
18/04:00pm 30.1 28.7 18.8 50 7.3 E 24 35 13 19 1008.4 - 0.0
18/03:30pm 30.7 28.6 18.1 47 8.1 E 26 33 14 18 1008.5 - 0.0
18/03:00pm 31.6 29.8 17.9 44 8.8 E 24 35 13 19 1008.9 1008.7 0.0
18/02:30pm 31.1 28.9 16.9 42 9.0 E 24 33 13 18 1009.2 - 0.0
18/02:00pm 31.6 29.3 16.7 40 9.4 E 24 33 13 18 1009.5 - 0.0
18/01:30pm 31.8 28.8 14.9 36 10.4 E 24 30 13 16 1009.7 - 0.0

Other Formats:

Comma delimited format used in spreadsheet applications
http://www.bom.gov.au/fwo/IDQ60801/IDQ60801.95283.axf

JavaScript Object Notation format (JSON) in row-major order
http://www.bom.gov.au/fwo/IDQ60801/IDQ60801.95283.json